Elizabeth City, NC

4:24 AM EDT on August 31, 2016 (GMT -0400)
Forest Park II | | Change Station

Elev 46 ft 36.30 °N, 76.27 °W | Updated 41 seconds ago

Clear
Clear
74.3 °F
Feels Like 71 °F
N
0.0
Wind Variable Wind from SSW
Gusts 0.0 mph

Today
High -- | Low -- °F
--% Chance of Precip.
Yesterday
High -- | Low -- °F
Precip. -- in
Pressure 29.99 in
Visibility 10.0 miles
Clouds Clear
Heat Index 71 °F
Dew Point 74 °F
Humidity 99%
Rainfall 0.00 in
Snow Depth Not available.
6:35 AM 7:33 PM
Waning Crescent, 1% visible
METAR KECG 310754Z AUTO 35005KT 10SM CLR 24/24 A2999 RMK AO2 SLP156 T02440239
Pressure 29.99 in
Visibility 10.0 miles
Clouds Clear
Heat Index 71 °F
Dew Point 74 °F
Humidity 99%
Rainfall 0.00 in
Snow Depth Not available.
6:35 AM 7:33 PM
Waning Crescent, 1% visible
METAR KECG 310754Z AUTO 35005KT 10SM CLR 24/24 A2999 RMK AO2 SLP156 T02440239

10-Day Weather Forecast

Almanac

Astronomy

Aug. 31, 2016 Rise Set
Actual Time
Civil Twilight
Nautical Twilight
Astronomical Twilight
Moon
Length of Visible Light
Length of Day
Tomorrow will be .
, % of the Moon is Illuminated

Today's Extremes

State Highs State Lows

Community

WunderPhotos

Upload Photos

1,936,052 photos uploaded!

WunderBlog® & News

Nearby

Air Quality

  Air Quality AQ Index Pollutant
Not available.

Snow Depth

Station Depth Elevation

Earthquake Activity

City Distance Mag. Time & Date
Minimum magnitude displayed is 2.5.

Coastal Water Temperatures

Place Temperature

Stations

Nearby Weather Stations

Station Location Temp. Windchill Dew Point Humidity Wind Precip. Elev Updated Type
                   

Watches & Warnings

There are currently no watches in effect.